createdAt,value
2017-06-08T00:00:16.123Z,0
2017-06-08T00:01:26.665Z,0
2017-06-08T00:02:36.625Z,0
2017-06-08T00:03:46.907Z,0
2017-06-08T00:04:56.879Z,0
2017-06-08T00:06:06.853Z,0
2017-06-08T00:07:17.071Z,0
2017-06-08T00:08:27.040Z,0
2017-06-08T00:09:37.359Z,0
2017-06-08T00:10:47.643Z,0
2017-06-08T00:11:57.305Z,0
2017-06-08T00:13:07.839Z,0
2017-06-08T00:14:18.123Z,0
2017-06-08T00:15:28.401Z,0
2017-06-08T00:16:38.678Z,0
2017-06-08T00:17:48.964Z,0
2017-06-08T00:18:58.879Z,0
2017-06-08T00:20:08.842Z,0
2017-06-08T00:21:19.121Z,0
2017-06-08T00:22:29.393Z,0
2017-06-08T00:23:39.368Z,0
2017-06-08T00:24:49.892Z,0
2017-06-08T00:25:59.871Z,0
2017-06-08T00:27:10.144Z,0
2017-06-08T00:28:20.421Z,0
2017-06-08T00:29:30.384Z,0
2017-06-08T00:30:40.303Z,0
2017-06-08T00:31:50.590Z,0
2017-06-08T00:33:00.894Z,0
2017-06-08T00:34:10.904Z,0
2017-06-08T00:35:21.177Z,0
2017-06-08T00:36:31.092Z,0
2017-06-08T00:37:41.376Z,0
2017-06-08T00:38:51.340Z,0
2017-06-08T00:40:01.306Z,0
2017-06-08T00:41:11.578Z,0
2017-06-08T00:42:21.792Z,0
2017-06-08T00:43:32.073Z,0
2017-06-08T00:44:42.044Z,0
2017-06-08T00:45:52.318Z,0
2017-06-08T00:47:02.603Z,0
2017-06-08T00:48:13.140Z,0
2017-06-08T00:49:23.425Z,0
2017-06-08T00:50:33.707Z,0
2017-06-08T00:51:43.985Z,0
2017-06-08T00:52:53.949Z,0
2017-06-08T00:54:04.195Z,0
2017-06-08T00:55:14.696Z,0
2017-06-08T00:56:24.977Z,0
2017-06-08T00:57:35.257Z,0
2017-06-08T00:58:45.223Z,0
2017-06-08T00:59:55.142Z,0
2017-06-08T01:01:05.417Z,0
2017-06-08T01:02:15.696Z,0
2017-06-08T01:03:25.667Z,0
2017-06-08T01:04:35.983Z,0
2017-06-08T01:05:46.522Z,0
2017-06-08T01:06:56.799Z,0
2017-06-08T01:08:06.780Z,0
2017-06-08T01:09:17.050Z,0
2017-06-08T01:10:27.323Z,0
2017-06-08T01:11:37.858Z,0
2017-06-08T01:12:48.134Z,0
2017-06-08T01:13:58.408Z,0
2017-06-08T01:15:08.374Z,0
2017-06-08T01:16:18.660Z,0
2017-06-08T01:17:29.182Z,0
2017-06-08T01:18:39.460Z,0
2017-06-08T01:19:49.734Z,0
2017-06-08T01:21:00.016Z,0
2017-06-08T01:22:10.301Z,0
2017-06-08T01:23:19.903Z,0
2017-06-08T01:24:30.187Z,0
2017-06-08T01:25:39.861Z,0
2017-06-08T01:26:49.826Z,0
2017-06-08T01:27:59.783Z,0
2017-06-08T01:29:10.322Z,0
2017-06-08T01:30:20.609Z,0
2017-06-08T01:31:30.890Z,0
2017-06-08T01:32:41.157Z,0
2017-06-08T01:33:51.127Z,0
2017-06-08T01:35:01.664Z,0
2017-06-08T01:36:11.633Z,0
2017-06-08T01:37:21.909Z,0
2017-06-08T01:38:32.185Z,0
2017-06-08T01:39:42.161Z,0
2017-06-08T01:40:52.697Z,0
2017-06-08T01:42:02.671Z,0
2017-06-08T01:43:12.967Z,0
2017-06-08T01:44:23.260Z,0
2017-06-08T01:45:33.532Z,0
2017-06-08T01:46:43.740Z,0
2017-06-08T01:47:54.015Z,0
2017-06-08T01:49:04.286Z,0
2017-06-08T01:50:14.565Z,0
2017-06-08T01:51:24.541Z,0
2017-06-08T01:52:34.758Z,0
2017-06-08T01:53:44.424Z,0
2017-06-08T01:54:53.765Z,0
2017-06-08T01:56:03.731Z,0
2017-06-08T01:57:14.008Z,0
2017-06-08T01:58:24.225Z,0
2017-06-08T01:59:34.500Z,0
2017-06-08T02:00:44.787Z,0
2017-06-08T02:01:55.059Z,0
2017-06-08T02:03:05.023Z,0
2017-06-08T02:04:15.240Z,0
2017-06-08T02:05:25.528Z,0
2017-06-08T02:06:35.847Z,0
2017-06-08T02:07:45.819Z,0
2017-06-08T02:08:56.092Z,0
2017-06-08T02:10:06.669Z,0
2017-06-08T02:11:16.958Z,0
2017-06-08T02:12:26.918Z,0
2017-06-08T02:13:37.192Z,0
2017-06-08T02:14:47.464Z,0
2017-06-08T02:15:57.991Z,0
2017-06-08T02:17:07.952Z,0
2017-06-08T02:18:18.233Z,0
2017-06-08T02:19:28.509Z,0
2017-06-08T02:20:38.474Z,0
2017-06-08T02:21:49.023Z,0
2017-06-08T02:22:59.304Z,0
2017-06-08T02:24:09.580Z,0
2017-06-08T02:25:19.543Z,0
2017-06-08T02:26:29.522Z,0
2017-06-08T02:27:40.045Z,0
2017-06-08T02:28:50.323Z,0
2017-06-08T02:29:59.986Z,0
2017-06-08T02:31:09.333Z,0
2017-06-08T02:32:19.613Z,0
2017-06-08T02:33:30.146Z,0
2017-06-08T02:34:40.423Z,0
2017-06-08T02:35:50.388Z,0
2017-06-08T02:37:00.046Z,0
2017-06-08T02:38:09.705Z,0
2017-06-08T02:39:19.919Z,0
2017-06-08T02:40:30.197Z,0
2017-06-08T02:41:40.197Z,0
2017-06-08T02:42:50.479Z,0
2017-06-08T02:44:01.192Z,0
2017-06-08T02:45:11.717Z,0
2017-06-08T02:46:21.687Z,4
2017-06-08T02:47:31.956Z,4
2017-06-08T02:48:41.917Z,4
2017-06-08T02:49:52.191Z,0
2017-06-08T02:51:02.714Z,0
2017-06-08T02:52:12.989Z,0
2017-06-08T02:53:22.948Z,0
2017-06-08T02:54:33.222Z,4
2017-06-08T02:55:43.497Z,0
2017-06-08T02:56:54.026Z,0
2017-06-08T02:58:04.311Z,0
2017-06-08T02:59:13.959Z,4
2017-06-08T03:00:23.943Z,0
2017-06-08T03:01:34.221Z,4
2017-06-08T03:02:44.757Z,4
2017-06-08T03:03:55.031Z,4
2017-06-08T03:05:05.313Z,8
2017-06-08T03:06:15.590Z,12
2017-06-08T03:07:25.862Z,20
2017-06-08T03:08:36.390Z,20
2017-06-08T03:09:46.667Z,20
2017-06-08T03:10:56.977Z,28
2017-06-08T03:12:07.259Z,28
2017-06-08T03:13:17.233Z,28
2017-06-08T03:14:27.768Z,12
2017-06-08T03:15:37.730Z,16
2017-06-08T03:16:48.001Z,12
2017-06-08T03:17:58.274Z,12
2017-06-08T03:19:08.554Z,8
2017-06-08T03:20:19.073Z,8
2017-06-08T03:21:29.345Z,8
2017-06-08T03:22:39.632Z,12
2017-06-08T03:23:49.925Z,12
2017-06-08T03:24:59.892Z,12
2017-06-08T03:26:10.427Z,8
2017-06-08T03:27:20.701Z,12
2017-06-08T03:28:30.987Z,12
2017-06-08T03:29:41.267Z,12
2017-06-08T03:30:51.542Z,16
2017-06-08T03:32:02.072Z,12
2017-06-08T03:33:12.034Z,16
2017-06-08T03:34:22.319Z,20
2017-06-08T03:35:32.599Z,20
2017-06-08T03:36:42.798Z,20
2017-06-08T03:37:53.319Z,24
2017-06-08T03:39:03.283Z,24
2017-06-08T03:40:13.250Z,24
2017-06-08T03:41:23.230Z,24
2017-06-08T03:42:33.505Z,20
2017-06-08T03:43:44.035Z,24
2017-06-08T03:44:54.315Z,24
2017-06-08T03:46:04.602Z,24
2017-06-08T03:47:14.880Z,28
2017-06-08T03:48:25.159Z,24
2017-06-08T03:49:35.689Z,28
2017-06-08T03:50:45.964Z,28
2017-06-08T03:51:56.239Z,24
2017-06-08T03:53:06.520Z,24
2017-06-08T03:54:16.807Z,28
2017-06-08T03:55:27.337Z,52
2017-06-08T03:56:37.620Z,28
2017-06-08T03:57:47.897Z,20
2017-06-08T03:58:58.178Z,20
2017-06-08T04:00:08.450Z,24
2017-06-08T04:01:18.985Z,1252
2017-06-08T04:02:29.267Z,1132
2017-06-08T04:03:39.546Z,1236
2017-06-08T04:04:49.815Z,1392
2017-06-08T04:05:59.784Z,1616
2017-06-08T04:07:10.041Z,1768
2017-06-08T04:08:20.318Z,1900
2017-06-08T04:09:30.598Z,2108
2017-06-08T04:10:40.567Z,2140
2017-06-08T04:11:50.529Z,2136
2017-06-08T04:13:01.056Z,2152
2017-06-08T04:14:10.709Z,2080
2017-06-08T04:15:20.676Z,2044
2017-06-08T04:16:30.951Z,2048
2017-06-08T04:17:41.224Z,2020
2017-06-08T04:18:51.758Z,2420
2017-06-08T04:20:01.740Z,2724
2017-06-08T04:21:12.025Z,1844
2017-06-08T04:22:21.683Z,2376
2017-06-08T04:23:31.955Z,3396
2017-06-08T04:24:42.483Z,3068
2017-06-08T04:25:52.765Z,3320
2017-06-08T04:27:03.051Z,2932
2017-06-08T04:28:13.325Z,2664
2017-06-08T04:29:23.603Z,2460
2017-06-08T04:30:34.133Z,2236
2017-06-08T04:31:44.426Z,2140
2017-06-08T04:32:54.398Z,1972
2017-06-08T04:34:04.366Z,1636
2017-06-08T04:35:14.330Z,1644
2017-06-08T04:36:24.550Z,1660
2017-06-08T04:37:34.836Z,1752
2017-06-08T04:38:45.108Z,1876
2017-06-08T04:39:55.073Z,1908
2017-06-08T04:41:05.041Z,1844
2017-06-08T04:42:15.582Z,1824
2017-06-08T04:43:25.551Z,1888
2017-06-08T04:44:35.516Z,1952
2017-06-08T04:45:45.500Z,2016
2017-06-08T04:46:55.784Z,2052
2017-06-08T04:48:06.316Z,2144
2017-06-08T04:49:16.605Z,2144
2017-06-08T04:50:26.881Z,2156
2017-06-08T04:51:37.166Z,2288
2017-06-08T04:52:47.442Z,2412
2017-06-08T04:53:57.665Z,2364
2017-06-08T04:55:07.635Z,2832
2017-06-08T04:56:17.912Z,2640
2017-06-08T04:57:27.883Z,2860
2017-06-08T04:58:37.849Z,2860
2017-06-08T04:59:48.384Z,3032
2017-06-08T05:00:58.351Z,2616
2017-06-08T05:02:08.649Z,2576
2017-06-08T05:03:18.000Z,2532
2017-06-08T05:04:28.298Z,2512
2017-06-08T05:05:38.523Z,2484
2017-06-08T05:06:48.183Z,2344
2017-06-08T05:07:58.468Z,2192
2017-06-08T05:09:08.751Z,2152
2017-06-08T05:10:18.730Z,2200
2017-06-08T05:11:29.275Z,2172
2017-06-08T05:12:39.246Z,2040
2017-06-08T05:13:49.227Z,2044
2017-06-08T05:14:59.256Z,1952
2017-06-08T05:16:09.551Z,1856
2017-06-08T05:17:20.074Z,1872
2017-06-08T05:18:30.362Z,1932
2017-06-08T05:19:40.655Z,1944
2017-06-08T05:20:50.938Z,1988
2017-06-08T05:22:01.220Z,2112
2017-06-08T05:23:11.769Z,2228
2017-06-08T05:24:21.749Z,2260
2017-06-08T05:25:32.034Z,2244
2017-06-08T05:26:42.328Z,2340
2017-06-08T05:27:52.623Z,2368
2017-06-08T05:29:03.152Z,2332
2017-06-08T05:30:13.443Z,2276
2017-06-08T05:31:23.413Z,2136
2017-06-08T05:32:33.414Z,2012
2017-06-08T05:33:43.689Z,2008
2017-06-08T05:34:53.969Z,2060
2017-06-08T05:36:03.939Z,2224
2017-06-08T05:37:13.934Z,2336
2017-06-08T05:38:24.224Z,2356
2017-06-08T05:39:34.521Z,2348
2017-06-08T05:40:45.051Z,2472
2017-06-08T05:41:55.337Z,2600
2017-06-08T05:43:05.616Z,2668
2017-06-08T05:44:15.896Z,2748
2017-06-08T05:45:26.179Z,2724
2017-06-08T05:46:36.742Z,2908
2017-06-08T05:47:47.032Z,3064
2017-06-08T05:48:57.317Z,3216
2017-06-08T05:50:07.599Z,3444
2017-06-08T05:51:17.573Z,3572
2017-06-08T05:52:28.107Z,3492
2017-06-08T05:53:38.383Z,3356
2017-06-08T05:54:48.353Z,3284
2017-06-08T05:55:58.328Z,3136
2017-06-08T05:57:08.305Z,3312
2017-06-08T05:58:18.531Z,3504
2017-06-08T05:59:28.828Z,3320
2017-06-08T06:00:39.119Z,3436
2017-06-08T06:01:49.432Z,3756
2017-06-08T06:02:59.410Z,3988
2017-06-08T06:04:09.937Z,4088
2017-06-08T06:05:20.216Z,4156
2017-06-08T06:06:30.213Z,4048
2017-06-08T06:07:40.509Z,3884
2017-06-08T06:08:50.783Z,3544
2017-06-08T06:10:01.320Z,3444
2017-06-08T06:11:11.302Z,3740
2017-06-08T06:12:21.273Z,4040
2017-06-08T06:13:31.559Z,4208
2017-06-08T06:14:41.843Z,4132
2017-06-08T06:15:52.375Z,3692
2017-06-08T06:17:02.663Z,3548
2017-06-08T06:18:12.957Z,3540
2017-06-08T06:19:23.253Z,3752
2017-06-08T06:20:33.548Z,3924
2017-06-08T06:21:44.129Z,3988
2017-06-08T06:22:54.419Z,3780
2017-06-08T06:24:04.702Z,3756
2017-06-08T06:25:14.683Z,3744
2017-06-08T06:26:24.970Z,3568
2017-06-08T06:27:35.766Z,3604
2017-06-08T06:28:46.040Z,3732
2017-06-08T06:29:56.335Z,3708
2017-06-08T06:31:06.617Z,3988
2017-06-08T06:32:16.593Z,4180
2017-06-08T06:33:27.120Z,4440
2017-06-08T06:34:37.406Z,4516
2017-06-08T06:35:47.683Z,4564
2017-06-08T06:36:57.974Z,4164
2017-06-08T06:38:08.264Z,3968
2017-06-08T06:39:18.490Z,4380
2017-06-08T06:40:28.766Z,4556
2017-06-08T06:41:38.758Z,5076
2017-06-08T06:42:49.047Z,4924
2017-06-08T06:43:59.327Z,4536
2017-06-08T06:45:09.860Z,4348
2017-06-08T06:46:19.833Z,4396
2017-06-08T06:47:30.133Z,4608
2017-06-08T06:48:40.426Z,4176
2017-06-08T06:49:50.720Z,3644
2017-06-08T06:51:00.944Z,3336
2017-06-08T06:52:10.923Z,3248
2017-06-08T06:53:20.589Z,3020
2017-06-08T06:54:30.894Z,3248
2017-06-08T06:55:40.863Z,3312
2017-06-08T06:56:51.394Z,3232
2017-06-08T06:58:01.694Z,3164
2017-06-08T06:59:11.664Z,3236
2017-06-08T07:00:21.639Z,3372
2017-06-08T07:01:31.927Z,3456
2017-06-08T07:02:42.469Z,3368
2017-06-08T07:03:52.746Z,3468
2017-06-08T07:05:02.722Z,3564
2017-06-08T07:06:13.011Z,3412
2017-06-08T07:07:23.303Z,3496
2017-06-08T07:08:33.899Z,3872
2017-06-08T07:09:44.184Z,3784
2017-06-08T07:10:53.846Z,3640
2017-06-08T07:12:04.133Z,3184
2017-06-08T07:13:14.421Z,2888
2017-06-08T07:14:24.954Z,2884
2017-06-08T07:15:35.251Z,2880
2017-06-08T07:16:44.914Z,3100
2017-06-08T07:17:55.201Z,3128
2017-06-08T07:19:05.486Z,3216
2017-06-08T07:20:16.028Z,3400
2017-06-08T07:21:25.994Z,3328
2017-06-08T07:22:36.290Z,3332
2017-06-08T07:23:46.264Z,3428
2017-06-08T07:24:56.558Z,3608
2017-06-08T07:26:06.482Z,3740
2017-06-08T07:27:16.782Z,3772
2017-06-08T07:28:26.760Z,3692
2017-06-08T07:29:37.052Z,3600
2017-06-08T07:30:47.337Z,3184
2017-06-08T07:31:57.562Z,2884
2017-06-08T07:33:07.852Z,2544
2017-06-08T07:34:18.141Z,2288
2017-06-08T07:35:28.429Z,2320
2017-06-08T07:36:38.716Z,2272
2017-06-08T07:37:49.263Z,2328
2017-06-08T07:38:59.570Z,2360
2017-06-08T07:40:09.543Z,2560
2017-06-08T07:41:19.825Z,2560
2017-06-08T07:42:30.114Z,2540
2017-06-08T07:43:40.650Z,2572
2017-06-08T07:44:50.629Z,2608
2017-06-08T07:46:00.595Z,2628
2017-06-08T07:47:10.894Z,2676
2017-06-08T07:48:20.561Z,2720
2017-06-08T07:49:31.105Z,2880
2017-06-08T07:50:41.405Z,2828
2017-06-08T07:51:51.384Z,2884
2017-06-08T07:53:01.049Z,3016
2017-06-08T07:54:11.346Z,3100
2017-06-08T07:55:21.885Z,2736
2017-06-08T07:56:32.170Z,2784
2017-06-08T07:57:42.472Z,3536
2017-06-08T07:58:52.771Z,3860
2017-06-08T08:00:03.063Z,3792
2017-06-08T08:01:13.603Z,3628
2017-06-08T08:02:23.889Z,3500
2017-06-08T08:03:34.178Z,3584
2017-06-08T08:04:44.148Z,3672
2017-06-08T08:05:54.122Z,3788
2017-06-08T08:07:04.339Z,3764
2017-06-08T08:08:14.647Z,3724
2017-06-08T08:09:24.930Z,3664
2017-06-08T08:10:35.231Z,3668
2017-06-08T08:11:45.535Z,3972
2017-06-08T08:12:55.759Z,4028
2017-06-08T08:14:06.047Z,3984
2017-06-08T08:15:16.334Z,4028
2017-06-08T08:16:26.635Z,4012
2017-06-08T08:17:36.930Z,3884
2017-06-08T08:18:47.463Z,3744
2017-06-08T08:19:57.742Z,3940
2017-06-08T08:21:08.020Z,3988
2017-06-08T08:22:18.001Z,4092
2017-06-08T08:23:27.992Z,4188
2017-06-08T08:24:38.538Z,4308
2017-06-08T08:25:48.835Z,4492
2017-06-08T08:26:59.180Z,4576
2017-06-08T08:28:09.470Z,4600
2017-06-08T08:29:19.446Z,4484
2017-06-08T08:30:29.986Z,4320
2017-06-08T08:31:39.971Z,4628
2017-06-08T08:32:49.961Z,4544
2017-06-08T08:34:00.260Z,4164
2017-06-08T08:35:10.561Z,4432
2017-06-08T08:36:21.090Z,4508
2017-06-08T08:37:31.393Z,4516
2017-06-08T08:38:41.673Z,4440
2017-06-08T08:39:51.965Z,4100
2017-06-08T08:41:01.949Z,3936
2017-06-08T08:42:12.200Z,4120
2017-06-08T08:43:22.429Z,4184
2017-06-08T08:44:32.704Z,4324
2017-06-08T08:45:42.993Z,4220
2017-06-08T08:46:52.964Z,4040
2017-06-08T08:48:03.184Z,4060
2017-06-08T08:49:13.470Z,3944
2017-06-08T08:50:23.768Z,3952
2017-06-08T08:51:34.065Z,3964
2017-06-08T08:52:44.360Z,3952
2017-06-08T08:53:54.941Z,4004
2017-06-08T08:55:05.234Z,4056
2017-06-08T08:56:15.520Z,4140
2017-06-08T08:57:25.504Z,4348
2017-06-08T08:58:35.796Z,4560
2017-06-08T08:59:46.350Z,4592
2017-06-08T09:00:56.644Z,4168
2017-06-08T09:02:06.627Z,4052
2017-06-08T09:03:16.623Z,3872
2017-06-08T09:04:26.912Z,3768
2017-06-08T09:05:37.460Z,3768
2017-06-08T09:06:47.732Z,3848
2017-06-08T09:07:57.698Z,3972
2017-06-08T09:09:07.672Z,4308
2017-06-08T09:10:17.646Z,4612
2017-06-08T09:11:28.182Z,4904
2017-06-08T09:12:38.483Z,4668
2017-06-08T09:13:48.796Z,4492
2017-06-08T09:14:58.771Z,4432
2017-06-08T09:16:09.052Z,4412
2017-06-08T09:17:19.598Z,4460
2017-06-08T09:18:29.888Z,4544
2017-06-08T09:19:39.854Z,4524
2017-06-08T09:20:50.142Z,4088
2017-06-08T09:22:00.114Z,3836
2017-06-08T09:23:10.649Z,4204
2017-06-08T09:24:20.930Z,4548
2017-06-08T09:25:31.220Z,4284
2017-06-08T09:26:41.509Z,4440
2017-06-08T09:27:51.479Z,4548
2017-06-08T09:29:02.016Z,4816
2017-06-08T09:30:12.310Z,4776
2017-06-08T09:31:22.597Z,4796
2017-06-08T09:32:32.882Z,5380
2017-06-08T09:33:43.167Z,6040
2017-06-08T09:34:53.391Z,6180
2017-06-08T09:36:03.366Z,5680
2017-06-08T09:37:13.673Z,5260
2017-06-08T09:38:23.969Z,5020
2017-06-08T09:39:34.259Z,5020
2017-06-08T09:40:44.490Z,5388
2017-06-08T09:41:54.774Z,5644
2017-06-08T09:43:05.055Z,5624
2017-06-08T09:44:15.347Z,4992
2017-06-08T09:45:25.640Z,5028
2017-06-08T09:46:36.174Z,4600
2017-06-08T09:47:46.164Z,4872
2017-06-08T09:48:56.505Z,5668
2017-06-08T09:50:06.504Z,5600
2017-06-08T09:51:16.793Z,4468
2017-06-08T09:52:27.025Z,3072
2017-06-08T09:53:36.993Z,2328
2017-06-08T09:54:47.290Z,2328
2017-06-08T09:55:57.267Z,2216
2017-06-08T09:57:07.566Z,2284
2017-06-08T09:58:18.136Z,2448
2017-06-08T09:59:28.430Z,2468
2017-06-08T10:00:38.101Z,2712
2017-06-08T10:01:48.396Z,2800
2017-06-08T10:02:58.381Z,2884
2017-06-08T10:04:08.979Z,3156
2017-06-08T10:05:18.961Z,3764
2017-06-08T10:06:29.255Z,3700
2017-06-08T10:07:39.256Z,3420
2017-06-08T10:08:49.234Z,3080
2017-06-08T10:09:59.146Z,2992
2017-06-08T10:11:09.433Z,2880
2017-06-08T10:12:19.730Z,2656
2017-06-08T10:13:29.713Z,2500
2017-06-08T10:14:40.005Z,2768
2017-06-08T10:15:50.540Z,3404
2017-06-08T10:17:00.529Z,3840
2017-06-08T10:18:10.817Z,3800
2017-06-08T10:19:21.115Z,3772
2017-06-08T10:20:31.408Z,3892
2017-06-08T10:21:41.944Z,3960
2017-06-08T10:22:51.917Z,4176
2017-06-08T10:24:02.203Z,4196
2017-06-08T10:25:12.491Z,4028
2017-06-08T10:26:22.771Z,4480
2017-06-08T10:27:33.305Z,4832
2017-06-08T10:28:43.587Z,4988
2017-06-08T10:29:53.564Z,5284
2017-06-08T10:31:03.868Z,5392
2017-06-08T10:32:14.159Z,4928
2017-06-08T10:33:24.715Z,4436
2017-06-08T10:34:34.702Z,4220
2017-06-08T10:35:44.684Z,4068
2017-06-08T10:36:55.016Z,4096
2017-06-08T10:38:05.312Z,4392
2017-06-08T10:39:15.853Z,4552
2017-06-08T10:40:25.834Z,5116
2017-06-08T10:41:35.819Z,5680
2017-06-08T10:42:45.796Z,5456
2017-06-08T10:43:56.094Z,4620
2017-06-08T10:45:06.630Z,4408
2017-06-08T10:46:16.934Z,4492
2017-06-08T10:47:26.596Z,4356
2017-06-08T10:48:36.888Z,4972
2017-06-08T10:49:46.871Z,4796
2017-06-08T10:50:57.414Z,4672
2017-06-08T10:52:07.707Z,4476
2017-06-08T10:53:17.688Z,4328
2017-06-08T10:54:27.994Z,4828
2017-06-08T10:55:38.284Z,5328
2017-06-08T10:56:48.813Z,5128
2017-06-08T10:57:59.108Z,4736
2017-06-08T10:59:09.397Z,5032
2017-06-08T11:00:19.703Z,5300
2017-06-08T11:01:30.018Z,5632
2017-06-08T11:02:40.247Z,5972
2017-06-08T11:03:50.559Z,6108
2017-06-08T11:05:00.528Z,6012
2017-06-08T11:06:10.518Z,5588
2017-06-08T11:07:20.190Z,5508
2017-06-08T11:08:30.733Z,5308
2017-06-08T11:09:41.016Z,5004
2017-06-08T11:10:51.317Z,4504
2017-06-08T11:12:01.293Z,4600
2017-06-08T11:13:11.590Z,4336
2017-06-08T11:14:21.191Z,4524
2017-06-08T11:15:31.498Z,4676
2017-06-08T11:16:41.776Z,4380
2017-06-08T11:17:51.761Z,4376
2017-06-08T11:19:02.047Z,4400
2017-06-08T11:20:12.612Z,4504
2017-06-08T11:21:22.910Z,4232
2017-06-08T11:22:32.589Z,3868
2017-06-08T11:23:42.568Z,3748
2017-06-08T11:24:52.550Z,3704
2017-06-08T11:26:02.784Z,3396
2017-06-08T11:27:13.074Z,3200
2017-06-08T11:28:23.499Z,3616
2017-06-08T11:29:33.802Z,3872
2017-06-08T11:30:44.089Z,3760
2017-06-08T11:31:54.692Z,3692
2017-06-08T11:33:04.975Z,3532
2017-06-08T11:34:14.643Z,3492
2017-06-08T11:35:24.922Z,3628
2017-06-08T11:36:35.220Z,3548
2017-06-08T11:37:45.453Z,3464
2017-06-08T11:38:55.734Z,3516
2017-06-08T11:40:06.023Z,3572
2017-06-08T11:41:16.316Z,3516
2017-06-08T11:42:26.596Z,3524
2017-06-08T11:43:36.822Z,3416
2017-06-08T11:44:46.794Z,3112
2017-06-08T11:45:56.774Z,3004
2017-06-08T11:47:07.066Z,3088
2017-06-08T11:48:17.356Z,3152
2017-06-08T11:49:27.583Z,3248
2017-06-08T11:50:37.575Z,3516
2017-06-08T11:51:47.859Z,3528
2017-06-08T11:52:58.137Z,3356
2017-06-08T11:54:08.162Z,3560
2017-06-08T11:55:18.706Z,3612
2017-06-08T11:56:28.998Z,3844
2017-06-08T11:57:39.288Z,3892
2017-06-08T11:58:49.561Z,3976
2017-06-08T11:59:59.540Z,3692
2017-06-08T12:01:09.778Z,3660
2017-06-08T12:02:19.752Z,4068
2017-06-08T12:03:30.043Z,4096
2017-06-08T12:04:40.031Z,3760
2017-06-08T12:05:50.326Z,3616
2017-06-08T12:07:00.554Z,3552
2017-06-08T12:08:10.535Z,3492
2017-06-08T12:09:20.822Z,3464
2017-06-08T12:10:30.798Z,3560
2017-06-08T12:11:41.089Z,3672
2017-06-08T12:12:51.318Z,3856
2017-06-08T12:14:01.297Z,4044
2017-06-08T12:15:11.728Z,4340
2017-06-08T12:16:22.007Z,4120
2017-06-08T12:17:32.307Z,3652
2017-06-08T12:18:42.847Z,3108
2017-06-08T12:19:53.158Z,2916
2017-06-08T12:21:03.450Z,2840
2017-06-08T12:22:13.738Z,2692
2017-06-08T12:23:23.711Z,2556
2017-06-08T12:24:34.254Z,2480
2017-06-08T12:25:44.558Z,2464
2017-06-08T12:26:54.535Z,2468
2017-06-08T12:28:04.518Z,2444
2017-06-08T12:29:14.803Z,2388
2017-06-08T12:30:25.342Z,2420
2017-06-08T12:31:34.374Z,2524
2017-06-08T12:32:44.073Z,2600
2017-06-08T12:33:53.743Z,2520
2017-06-08T12:35:03.725Z,2512
2017-06-08T12:36:14.264Z,2536
2017-06-08T12:37:23.928Z,2556
2017-06-08T12:38:34.234Z,2604
2017-06-08T12:39:44.520Z,2888
2017-06-08T12:40:54.496Z,2932
2017-06-08T12:42:05.102Z,2912
2017-06-08T12:43:15.383Z,2896
2017-06-08T12:44:25.678Z,2944
2017-06-08T12:45:35.653Z,3212
2017-06-08T12:46:45.937Z,3232
2017-06-08T12:47:56.475Z,3152
2017-06-08T12:49:06.468Z,2392
2017-06-08T12:50:16.540Z,36
2017-06-08T12:51:26.831Z,36
2017-06-08T12:52:37.151Z,36
2017-06-08T12:53:47.411Z,36
2017-06-08T12:54:57.699Z,36
2017-06-08T12:56:07.689Z,40
2017-06-08T12:57:17.973Z,36
2017-06-08T12:58:28.258Z,36
2017-06-08T12:59:38.798Z,32
2017-06-08T13:00:48.768Z,32
2017-06-08T13:01:58.746Z,32
2017-06-08T13:03:08.725Z,32
2017-06-08T13:04:19.014Z,28
2017-06-08T13:05:29.552Z,28
2017-06-08T13:06:39.837Z,28
2017-06-08T13:07:50.126Z,28
2017-06-08T13:09:00.420Z,32
2017-06-08T13:10:10.404Z,32
2017-06-08T13:11:20.640Z,36
2017-06-08T13:12:30.923Z,40
2017-06-08T13:13:40.900Z,48
2017-06-08T13:14:50.885Z,48
2017-06-08T13:16:01.172Z,48
2017-06-08T13:17:11.701Z,52
2017-06-08T13:18:21.365Z,56
2017-06-08T13:19:31.649Z,60
2017-06-08T13:20:41.619Z,60
2017-06-08T13:21:51.592Z,56
2017-06-08T13:23:01.811Z,56
2017-06-08T13:24:11.778Z,56
2017-06-08T13:25:22.068Z,56
2017-06-08T13:26:32.362Z,56
2017-06-08T13:27:42.641Z,60
2017-06-08T13:28:53.168Z,56
2017-06-08T13:30:03.149Z,56
2017-06-08T13:31:13.450Z,52
2017-06-08T13:32:23.426Z,52
2017-06-08T13:33:33.714Z,52
2017-06-08T13:34:44.251Z,52
2017-06-08T13:35:53.910Z,52
2017-06-08T13:37:04.199Z,52
2017-06-08T13:38:14.173Z,56
2017-06-08T13:39:24.145Z,56
2017-06-08T13:40:34.684Z,56
2017-06-08T13:41:44.663Z,60
2017-06-08T13:42:54.633Z,52
2017-06-08T13:44:04.918Z,52
2017-06-08T13:45:14.572Z,52
2017-06-08T13:46:24.484Z,52
2017-06-08T13:47:34.779Z,52
2017-06-08T13:48:44.751Z,52
2017-06-08T13:49:55.031Z,52
2017-06-08T13:51:05.321Z,52
2017-06-08T13:52:15.876Z,52
2017-06-08T13:53:26.163Z,52
2017-06-08T13:54:35.821Z,52
2017-06-08T13:55:46.103Z,52
2017-06-08T13:56:56.395Z,48
2017-06-08T13:58:06.935Z,52
2017-06-08T13:59:17.217Z,48
2017-06-08T14:00:27.190Z,48
2017-06-08T14:01:37.486Z,48
2017-06-08T14:02:47.767Z,48
2017-06-08T14:03:58.305Z,48
2017-06-08T14:05:08.593Z,48
2017-06-08T14:06:18.565Z,48
2017-06-08T14:07:28.530Z,48
2017-06-08T14:08:38.819Z,44
2017-06-08T14:09:49.388Z,44
2017-06-08T14:10:59.353Z,44
2017-06-08T14:12:09.331Z,44
2017-06-08T14:13:19.619Z,44
2017-06-08T14:14:29.272Z,48
2017-06-08T14:15:39.825Z,52
2017-06-08T14:16:50.125Z,52
2017-06-08T14:18:00.408Z,52
2017-06-08T14:19:10.690Z,52
2017-06-08T14:20:20.977Z,56
2017-06-08T14:21:31.530Z,52
2017-06-08T14:22:41.508Z,60
2017-06-08T14:23:52.018Z,64
2017-06-08T14:25:02.303Z,64
2017-06-08T14:26:12.589Z,64
2017-06-08T14:27:22.808Z,72
2017-06-08T14:28:32.779Z,60
2017-06-08T14:29:42.756Z,56
2017-06-08T14:30:52.730Z,56
2017-06-08T14:32:03.016Z,56
2017-06-08T14:33:13.241Z,52
2017-06-08T14:34:23.529Z,56
2017-06-08T14:35:33.231Z,72
2017-06-08T14:36:43.515Z,72
2017-06-08T14:37:53.176Z,72
2017-06-08T14:39:03.711Z,56
2017-06-08T14:40:13.686Z,64
2017-06-08T14:41:23.652Z,48
2017-06-08T14:42:33.945Z,44
2017-06-08T14:43:44.222Z,44
2017-06-08T14:44:54.136Z,44
2017-06-08T14:46:04.424Z,44
2017-06-08T14:47:14.715Z,44
2017-06-08T14:48:24.684Z,48
2017-06-08T14:49:34.964Z,52
2017-06-08T14:50:45.556Z,52
2017-06-08T14:51:55.840Z,52
2017-06-08T14:53:06.123Z,52
2017-06-08T14:54:16.106Z,48
2017-06-08T14:55:26.094Z,48
2017-06-08T14:56:37.086Z,44
2017-06-08T14:57:47.375Z,44
2017-06-08T14:58:57.666Z,44
2017-06-08T15:00:07.635Z,40
2017-06-08T15:01:17.933Z,44
2017-06-08T15:02:28.150Z,44
2017-06-08T15:03:38.435Z,44
2017-06-08T15:04:48.095Z,44
2017-06-08T15:05:58.066Z,44
2017-06-08T15:07:08.042Z,40
2017-06-08T15:08:18.568Z,44
2017-06-08T15:09:28.556Z,44
2017-06-08T15:10:38.843Z,52
2017-06-08T15:11:49.125Z,48
2017-06-08T15:12:59.401Z,44
2017-06-08T15:14:09.307Z,44
2017-06-08T15:15:19.602Z,44
2017-06-08T15:16:29.889Z,40
2017-06-08T15:17:40.176Z,44
2017-06-08T15:18:50.452Z,44
2017-06-08T15:20:00.975Z,52
2017-06-08T15:21:11.255Z,56
2017-06-08T15:22:21.540Z,52
2017-06-08T15:23:31.829Z,48
2017-06-08T15:24:41.801Z,48
2017-06-08T15:25:52.024Z,48
2017-06-08T15:27:02.302Z,44
2017-06-08T15:28:11.670Z,40
2017-06-08T15:29:21.962Z,44
2017-06-08T15:30:31.928Z,48
2017-06-08T15:31:41.859Z,44
2017-06-08T15:32:52.147Z,48
2017-06-08T15:34:02.434Z,44
2017-06-08T15:35:12.785Z,40
2017-06-08T15:36:23.092Z,40
2017-06-08T15:37:33.318Z,40
2017-06-08T15:38:42.976Z,36
2017-06-08T15:39:53.270Z,36
2017-06-08T15:41:03.606Z,40
2017-06-08T15:42:13.918Z,40
2017-06-08T15:43:24.452Z,40
2017-06-08T15:44:34.770Z,36
2017-06-08T15:45:45.091Z,40
2017-06-08T15:46:55.413Z,40
2017-06-08T15:48:05.522Z,40
2017-06-08T15:49:15.438Z,48
2017-06-08T15:50:25.418Z,40
2017-06-08T15:51:35.706Z,44
2017-06-08T15:52:46.000Z,36
2017-06-08T15:53:56.286Z,32
2017-06-08T15:55:06.887Z,32
2017-06-08T15:56:17.216Z,36
2017-06-08T15:57:27.497Z,36
2017-06-08T15:58:37.780Z,32
2017-06-08T15:59:48.064Z,36
2017-06-08T16:00:58.285Z,32
2017-06-08T16:02:08.259Z,36
2017-06-08T16:03:18.222Z,32
2017-06-08T16:04:28.556Z,36
2017-06-08T16:05:38.840Z,36
2017-06-08T16:06:49.368Z,40
2017-06-08T16:07:59.863Z,32
2017-06-08T16:09:09.830Z,36
2017-06-08T16:10:20.149Z,40